logo
Search for airport 
image banner adimage banner adimage banner ad
image banner ad

HKSM - Siaya (Gombe)

Located in , Kenya

ICAO - , IATA -

Data provided by Airmate  

General information

Coordinates: S0°4'8" E34°18'3"
Elevation is 4136 feet MSL.
 
View others Airports in Western Province

Operational data

Special qualification required
Current time UTC:
Current local time:
Weather at : HKKI - Kisumu ( 48 km )
METAR: HKKI 170500Z 07005KT 9999 FEW020 22/18 Q1018
TAF: TAF HKKI 170500Z 1706/1812 24010KT 9999 FEW025CB SCT026 TEMPO 1713/1717 -TSRA FEW021CB SCT022 BKN080 BECMG 1720/1723 06005KT NSW SCT019 BKN080 BECMG 1807/1811 21010KT FEW027CB SCT028
View NOTAMs / SUP AIP / TFR affecting this airport [VIEW]
Communications frequencies: [VIEW]

Runways:

RWY identifierQFULength (ft)Width (ft)SurfaceLDA (ft)
1800UNK
3600UNK

Airport contact information

Address: Kenya

Satellite view of HKSM